Time;durP1;ratioP1;P1;durP2;ratioP2;P2;SDS_P1;SDS_P2;PMS_P1;PMS_P2;Temp;Humidity;BMP_temperature;BMP_pressure;BME280_temperature;BME280_humidity;BME280_pressure;Samples;Min_cycle;Max_cycle;Signal;HPM_P1;HPM_P2
2023/05/05 00:00:53;;;;;;;15.95;8.77;;;;;;;15.47;100.00;101420.47;5054165;28;20093;-43
2023/05/05 00:03:23;;;;;;;12.45;7.85;;;;;;;15.48;100.00;101414.03;5052947;28;20467;-45
2023/05/05 00:05:49;;;;;;;12.48;7.55;;;;;;;15.44;100.00;101407.31;5052568;28;20442;-45
2023/05/05 00:08:15;;;;;;;14.27;5.88;;;;;;;15.48;100.00;101405.91;5054031;28;20037;-46
2023/05/05 00:10:41;;;;;;;12.20;4.35;;;;;;;15.46;100.00;101382.72;5052228;28;20032;-45
2023/05/05 00:13:07;;;;;;;9.73;3.40;;;;;;;15.51;100.00;101366.69;5054242;28;20100;-47
2023/05/05 00:15:33;;;;;;;10.32;3.08;;;;;;;15.56;100.00;101358.75;5052360;28;20510;-48
2023/05/05 00:17:59;;;;;;;15.38;3.00;;;;;;;15.61;100.00;101341.88;5054009;28;20025;-46
2023/05/05 00:20:24;;;;;;;10.02;2.00;;;;;;;15.70;100.00;101327.13;5052680;28;20156;-46
2023/05/05 00:22:50;;;;;;;10.10;2.40;;;;;;;15.75;100.00;101317.34;5035741;28;20479;-44
2023/05/05 00:25:15;;;;;;;8.43;2.20;;;;;;;15.77;100.00;101322.53;5053943;28;20190;-47
2023/05/05 00:27:40;;;;;;;5.65;1.90;;;;;;;15.82;100.00;101311.06;5053630;28;20025;-44
2023/05/05 00:30:06;;;;;;;5.93;2.00;;;;;;;15.81;100.00;101315.69;5052397;28;20033;-46
2023/05/05 00:32:33;;;;;;;6.43;2.25;;;;;;;15.86;100.00;101312.34;5053258;28;20025;-46
2023/05/05 00:34:58;;;;;;;9.13;2.20;;;;;;;15.87;100.00;101322.16;5052609;28;20027;-47
2023/05/05 00:37:25;;;;;;;11.52;2.20;;;;;;;15.83;100.00;101332.59;5052849;28;20029;-48
2023/05/05 00:39:53;;;;;;;13.75;2.30;;;;;;;15.78;100.00;101335.91;5052717;28;20025;-45
2023/05/05 00:42:18;;;;;;;8.50;2.55;;;;;;;15.72;100.00;101344.06;5052461;28;20032;-46
2023/05/05 00:44:44;;;;;;;9.45;2.20;;;;;;;15.63;100.00;101339.78;5053301;28;20017;-47
2023/05/05 00:47:10;;;;;;;7.63;2.70;;;;;;;15.55;100.00;101343.53;5052975;28;20033;-46
2023/05/05 00:49:36;;;;;;;7.32;2.45;;;;;;;15.50;100.00;101346.84;5052148;28;20029;-45
2023/05/05 00:52:02;;;;;;;6.32;2.33;;;;;;;15.48;100.00;101354.38;5051534;28;20031;-46
2023/05/05 00:54:28;;;;;;;9.52;3.00;;;;;;;15.47;100.00;101363.53;5051613;28;20518;-45
2023/05/05 00:56:53;;;;;;;6.88;2.47;;;;;;;15.42;100.00;101373.31;5052581;28;20024;-46
2023/05/05 00:59:20;;;;;;;6.03;2.10;;;;;;;15.32;100.00;101385.38;5053247;28;20045;-45
2023/05/05 01:01:45;;;;;;;10.88;2.50;;;;;;;15.24;100.00;101373.81;5034759;28;20033;-46
2023/05/05 01:04:11;;;;;;;7.70;2.50;;;;;;;15.21;100.00;101379.66;5052834;28;20029;-45
2023/05/05 01:06:39;;;;;;;9.48;2.35;;;;;;;15.21;100.00;101376.94;5053065;28;20032;-45
2023/05/05 01:09:24;;;;;;;8.63;3.28;;;;;;;15.17;100.00;101373.81;5052041;28;20029;-45
2023/05/05 01:12:01;;;;;;;6.65;2.55;;;;;;;15.15;100.00;101374.00;5052771;28;20041;-44
2023/05/05 01:14:42;;;;;;;11.27;2.90;;;;;;;15.12;100.00;101390.66;5052877;28;20134;-46
2023/05/05 01:17:19;;;;;;;13.77;3.58;;;;;;;15.05;100.00;101395.19;5052449;28;20025;-44
2023/05/05 01:20:07;;;;;;;9.25;2.58;;;;;;;14.90;100.00;101413.41;5051369;28;20048;-45
2023/05/05 01:22:37;;;;;;;9.52;2.63;;;;;;;14.82;100.00;101410.84;5051501;28;20510;-44
2023/05/05 01:25:21;;;;;;;8.05;2.97;;;;;;;14.79;100.00;101403.97;5051264;28;20020;-45
2023/05/05 01:27:49;;;;;;;10.77;3.35;;;;;;;14.76;100.00;101401.66;5052918;28;20029;-45
2023/05/05 01:30:30;;;;;;;8.48;2.80;;;;;;;14.74;100.00;101413.72;5052672;28;20504;-46
2023/05/05 01:33:02;;;;;;;7.78;3.65;;;;;;;14.70;100.00;101419.53;5050403;28;20482;-46
2023/05/05 01:35:33;;;;;;;7.72;2.83;;;;;;;14.58;100.00;101415.66;5050984;28;20727;-45
2023/05/05 01:38:01;;;;;;;12.73;3.67;;;;;;;14.55;100.00;101413.34;5051339;28;20109;-48
2023/05/05 01:40:30;;;;;;;10.52;3.13;;;;;;;14.54;100.00;101417.09;5051482;28;20492;-48
2023/05/05 01:42:56;;;;;;;10.82;3.17;;;;;;;14.50;100.00;101430.13;5051577;28;20025;-46
2023/05/05 01:45:25;;;;;;;10.52;3.17;;;;;;;14.42;100.00;101422.13;5052690;28;20074;-45
2023/05/05 01:47:51;;;;;;;11.82;3.67;;;;;;;14.41;100.00;101419.63;5051998;28;20025;-48
2023/05/05 01:50:17;;;;;;;15.32;3.70;;;;;;;14.40;100.00;101429.63;5051923;28;20182;-44
2023/05/05 01:52:44;;;;;;;14.32;3.42;;;;;;;14.35;100.00;101420.38;5052812;28;20112;-45
2023/05/05 01:55:10;;;;;;;9.55;3.40;;;;;;;14.35;100.00;101428.50;5050767;28;20037;-48
2023/05/05 01:57:36;;;;;;;13.43;3.92;;;;;;;14.33;100.00;101422.47;5050848;28;20174;-44
2023/05/05 02:00:03;;;;;;;22.58;4.63;;;;;;;14.31;100.00;101424.53;5051167;28;20033;-45
2023/05/05 02:02:31;;;;;;;11.77;4.07;;;;;;;14.27;100.00;101433.03;5050740;28;20055;-44
2023/05/05 02:04:57;;;;;;;14.90;4.80;;;;;;;14.18;100.00;101434.19;5052692;28;20083;-44
2023/05/05 02:07:23;;;;;;;12.95;4.75;;;;;;;14.18;100.00;101436.06;5051449;28;20147;-49
2023/05/05 02:09:49;;;;;;;14.93;4.10;;;;;;;14.14;100.00;101429.34;5051042;28;20025;-44
2023/05/05 02:12:15;;;;;;;13.63;4.50;;;;;;;14.06;100.00;101422.19;5052005;28;20187;-45
2023/05/05 02:14:41;;;;;;;18.95;4.30;;;;;;;14.03;100.00;101422.53;5051154;28;20139;-45
2023/05/05 02:17:07;;;;;;;14.43;4.85;;;;;;;14.02;100.00;101420.88;5050410;28;20221;-46
2023/05/05 02:19:39;;;;;;;12.05;4.90;;;;;;;13.97;100.00;101424.16;5050588;28;20024;-44
2023/05/05 02:22:05;;;;;;;14.57;4.05;;;;;;;13.93;100.00;101433.69;5051029;28;20118;-46
2023/05/05 02:24:30;;;;;;;17.52;4.35;;;;;;;13.94;100.00;101435.34;5050463;28;20046;-45
2023/05/05 02:26:57;;;;;;;16.65;4.82;;;;;;;13.94;100.00;101446.19;5052110;28;20032;-45
2023/05/05 02:29:28;;;;;;;14.93;4.35;;;;;;;13.90;100.00;101452.16;5050761;28;20021;-44
2023/05/05 02:31:58;;;;;;;13.60;4.70;;;;;;;13.82;100.00;101458.50;5052173;28;20036;-45
2023/05/05 02:34:25;;;;;;;19.88;5.32;;;;;;;13.81;100.00;101463.09;5050416;28;20036;-44
2023/05/05 02:36:55;;;;;;;19.10;5.35;;;;;;;13.80;100.00;101450.59;5050348;28;20051;-46
2023/05/05 02:39:29;;;;;;;15.65;4.75;;;;;;;13.80;100.00;101456.00;5033390;28;20398;-43
2023/05/05 02:41:57;;;;;;;21.88;5.13;;;;;;;13.77;100.00;101459.09;5049913;28;20477;-45
2023/05/05 02:44:23;;;;;;;25.55;6.53;;;;;;;13.74;100.00;101464.84;5049779;28;20029;-45
2023/05/05 02:46:49;;;;;;;16.65;6.32;;;;;;;13.75;100.00;101468.41;5049890;28;20525;-48
2023/05/05 02:49:15;;;;;;;20.67;6.40;;;;;;;13.74;100.00;101464.84;5050852;28;20033;-46
2023/05/05 02:51:40;;;;;;;19.15;7.43;;;;;;;13.74;100.00;101472.13;5050739;28;20086;-46
2023/05/05 02:54:06;;;;;;;22.17;7.53;;;;;;;13.73;100.00;101471.31;5048561;28;20096;-47
2023/05/05 02:56:37;;;;;;;24.98;8.90;;;;;;;13.71;100.00;101470.66;5049742;28;20048;-44
2023/05/05 02:59:41;;;;;;;19.25;8.73;;;;;;;13.62;100.00;101474.50;5051132;28;20037;-45
2023/05/05 03:02:48;;;;;;;30.05;10.60;;;;;;;13.61;100.00;101478.19;5050707;28;20047;-46
2023/05/05 03:05:24;;;;;;;29.88;12.10;;;;;;;13.62;100.00;101479.91;5043933;28;20041;-46
2023/05/05 03:07:54;;;;;;;38.25;12.20;;;;;;;13.61;100.00;101478.19;5050733;28;20342;-45
2023/05/05 03:10:26;;;;;;;25.52;11.35;;;;;;;13.61;100.00;101484.47;5049525;28;20047;-44
2023/05/05 03:12:54;;;;;;;39.35;14.05;;;;;;;13.59;100.00;101482.97;5049146;28;20044;-46
2023/05/05 03:15:40;;;;;;;43.92;15.45;;;;;;;13.57;100.00;101482.31;5049355;28;20434;-46
2023/05/05 03:18:07;;;;;;;40.65;17.60;;;;;;;13.53;100.00;101465.63;5050460;28;20028;-49
2023/05/05 03:20:33;;;;;;;45.17;15.80;;;;;;;13.51;100.00;101456.03;5049360;28;20390;-47
2023/05/05 03:23:00;;;;;;;58.30;18.48;;;;;;;13.50;100.00;101470.56;5049103;28;20025;-49
2023/05/05 03:25:46;;;;;;;51.30;18.27;;;;;;;13.50;100.00;101468.69;5050373;28;20024;-46
2023/05/05 03:28:13;;;;;;;49.97;18.75;;;;;;;13.49;100.00;101471.59;5049131;28;20101;-45
2023/05/05 03:30:38;;;;;;;64.27;20.63;;;;;;;13.49;100.00;101483.25;5050049;28;20036;-44
2023/05/05 03:33:04;;;;;;;50.70;21.05;;;;;;;13.45;100.00;101475.69;5048924;28;20283;-46
2023/05/05 03:35:29;;;;;;;50.90;22.83;;;;;;;13.43;100.00;101470.47;5049224;28;20116;-47
2023/05/05 03:37:56;;;;;;;47.58;21.23;;;;;;;13.38;100.00;101483.72;5032655;28;20442;-45
2023/05/05 03:40:22;;;;;;;64.50;23.67;;;;;;;13.34;100.00;101480.50;5050499;28;20028;-45
2023/05/05 03:42:47;;;;;;;50.85;24.45;;;;;;;13.31;100.00;101480.06;5048051;28;20244;-43
2023/05/05 03:45:13;;;;;;;53.83;24.00;;;;;;;13.28;100.00;101483.13;5049963;28;20025;-47
2023/05/05 03:47:38;;;;;;;55.95;26.30;;;;;;;13.25;100.00;101489.72;5049963;28;20426;-47
2023/05/05 03:50:04;;;;;;;74.05;27.58;;;;;;;13.23;100.00;101491.75;5048709;28;20039;-46
2023/05/05 03:52:31;;;;;;;71.40;30.60;;;;;;;13.17;100.00;101497.91;5048924;28;20025;-49
2023/05/05 03:54:56;;;;;;;67.20;28.63;;;;;;;13.16;100.00;101496.19;5048331;28;20056;-46
2023/05/05 03:57:22;;;;;;;71.93;30.83;;;;;;;13.12;100.00;101511.13;5050213;28;20029;-46
2023/05/05 03:59:47;;;;;;;85.68;32.97;;;;;;;13.08;100.00;101507.91;5050407;28;20519;-44
2023/05/05 04:02:12;;;;;;;93.28;36.15;;;;;;;13.01;100.00;101511.56;5048765;28;20116;-44
2023/05/05 04:04:38;;;;;;;87.47;35.63;;;;;;;13.01;100.00;101522.38;5050656;28;20025;-47
2023/05/05 04:07:03;;;;;;;98.15;39.78;;;;;;;12.96;100.00;101523.75;5050515;28;20021;-44
2023/05/05 04:09:29;;;;;;;100.90;41.03;;;;;;;12.96;100.00;101515.63;5050395;28;20458;-49
2023/05/05 04:11:54;;;;;;;105.43;42.35;;;;;;;12.93;100.00;101526.81;5048972;28;20075;-47
2023/05/05 04:14:20;;;;;;;115.43;43.80;;;;;;;12.90;100.00;101521.78;5048055;28;20092;-46
2023/05/05 04:16:45;;;;;;;117.15;43.60;;;;;;;12.89;100.00;101525.47;5031936;28;20438;-48
2023/05/05 04:19:11;;;;;;;117.32;43.33;;;;;;;12.87;100.00;101530.22;5048174;28;20036;-47
2023/05/05 04:21:37;;;;;;;119.63;45.67;;;;;;;12.90;100.00;101535.28;5049846;28;20017;-46
2023/05/05 04:24:04;;;;;;;114.43;44.65;;;;;;;12.93;100.00;101534.91;5053478;28;20021;-44
2023/05/05 04:26:29;;;;;;;126.65;45.83;;;;;;;12.93;100.00;101537.63;5051913;28;20519;-45
2023/05/05 04:28:55;;;;;;;122.57;47.53;;;;;;;12.94;100.00;101536.59;5053414;28;20108;-47
2023/05/05 04:31:20;;;;;;;124.32;47.50;;;;;;;12.96;100.00;101539.94;5035296;28;20053;-47
2023/05/05 04:33:46;;;;;;;116.72;46.67;;;;;;;12.92;100.00;101540.47;5053581;28;20033;-45
2023/05/05 04:36:11;;;;;;;123.28;47.08;;;;;;;12.94;100.00;101543.84;5053488;28;20036;-45
2023/05/05 04:38:36;;;;;;;126.95;46.95;;;;;;;12.93;100.00;101551.13;5053669;28;20467;-45
2023/05/05 04:41:05;;;;;;;127.60;47.45;;;;;;;12.96;100.00;101550.75;5035083;28;20025;-44
2023/05/05 04:43:30;;;;;;;130.73;48.28;;;;;;;13.01;100.00;101552.94;5051992;28;20056;-46
2023/05/05 04:45:56;;;;;;;121.47;47.55;;;;;;;13.12;100.00;101543.56;5053475;28;20142;-45
2023/05/05 04:48:21;;;;;;;114.53;45.67;;;;;;;13.12;100.00;101543.56;5053534;28;20029;-46
2023/05/05 04:50:46;;;;;;;118.97;47.25;;;;;;;13.14;100.00;101542.34;5051597;28;20033;-45
2023/05/05 04:53:12;;;;;;;114.68;44.40;;;;;;;13.24;100.00;101546.66;5051653;28;20021;-47
2023/05/05 04:55:40;;;;;;;114.65;44.83;;;;;;;13.24;100.00;101538.53;5052640;28;20099;-46
2023/05/05 04:58:05;;;;;;;114.22;45.33;;;;;;;13.29;100.00;101537.00;5052882;28;20040;-47
2023/05/05 05:00:31;;;;;;;113.25;43.45;;;;;;;13.38;100.00;101538.63;5051072;28;20025;-48
2023/05/05 05:02:56;;;;;;;107.50;42.50;;;;;;;13.46;100.00;101544.97;5035036;28;20043;-45
2023/05/05 05:05:22;;;;;;;113.57;44.10;;;;;;;13.51;100.00;101539.88;5051532;28;20036;-44
2023/05/05 05:07:47;;;;;;;106.90;45.10;;;;;;;13.54;100.00;101536.78;5051820;28;20068;-46
2023/05/05 05:10:14;;;;;;;114.63;45.33;;;;;;;13.62;100.00;101544.81;5052598;28;20122;-43
2023/05/05 05:12:40;;;;;;;107.28;44.17;;;;;;;13.73;100.00;101541.63;5051507;28;20029;-43
2023/05/05 05:15:06;;;;;;;103.15;43.63;;;;;;;13.83;100.00;101547.63;5052584;28;20032;-46
2023/05/05 05:17:31;;;;;;;104.72;44.33;;;;;;;13.97;100.00;101547.81;5052755;28;20112;-46
2023/05/05 05:20:00;;;;;;;105.05;40.88;;;;;;;14.07;100.00;101542.94;5051477;28;20137;-47
2023/05/05 05:22:26;;;;;;;101.10;42.97;;;;;;;14.23;100.00;101542.75;5051353;28;20039;-49
2023/05/05 05:24:52;;;;;;;97.78;39.75;;;;;;;14.19;100.00;101527.91;5051081;28;20455;-48
2023/05/05 05:27:17;;;;;;;98.32;39.80;;;;;;;14.34;100.00;101533.28;5052524;28;20104;-45
2023/05/05 05:29:43;;;;;;;94.75;39.97;;;;;;;14.46;100.00;101537.19;5050633;28;20032;-45
2023/05/05 05:32:09;;;;;;;94.10;39.17;;;;;;;14.46;100.00;101537.19;5052077;28;20025;-47
2023/05/05 05:34:35;;;;;;;88.10;40.00;;;;;;;14.53;100.00;101531.03;5052185;28;20040;-48
2023/05/05 05:37:00;;;;;;;90.53;39.30;;;;;;;14.44;100.00;101522.16;5052265;28;20297;-47
2023/05/05 05:39:27;;;;;;;93.65;38.03;;;;;;;14.48;100.00;101523.44;5052193;28;20025;-48
2023/05/05 05:41:52;;;;;;;81.50;37.25;;;;;;;14.49;100.00;101525.13;5051927;28;20044;-45
2023/05/05 05:44:18;;;;;;;87.97;38.10;;;;;;;14.48;100.00;101524.31;5034496;28;20615;-46
2023/05/05 05:46:43;;;;;;;88.45;35.30;;;;;;;14.42;100.00;101529.63;5052968;28;20035;-48
2023/05/05 05:49:08;;;;;;;88.30;35.80;;;;;;;14.52;100.00;101535.59;5053244;28;20467;-44
2023/05/05 05:51:34;;;;;;;93.50;37.30;;;;;;;14.90;100.00;101540.81;5051155;28;20041;-46
2023/05/05 05:53:59;;;;;;;91.00;38.85;;;;;;;15.45;100.00;101560.91;5052330;28;20025;-44
2023/05/05 05:56:25;;;;;;;82.68;32.95;;;;;;;15.89;100.00;101546.22;5051990;28;20037;-46
2023/05/05 05:58:50;;;;;;;71.95;32.25;;;;;;;16.82;100.00;101538.44;5052286;28;20327;-47
2023/05/05 06:01:16;;;;;;;66.03;30.55;;;;;;;17.52;100.00;101521.75;5050467;28;20031;-44
2023/05/05 06:03:42;;;;;;;62.35;28.90;;;;;;;17.70;100.00;101523.81;5051019;28;20044;-44
2023/05/05 06:06:07;;;;;;;59.67;28.42;;;;;;;17.78;100.00;101520.84;5051845;28;20037;-46
2023/05/05 06:08:34;;;;;;;58.88;26.42;;;;;;;17.70;100.00;101524.63;5051776;28;20029;-47
2023/05/05 06:11:00;;;;;;;58.55;26.30;;;;;;;17.20;100.00;101529.72;5050161;28;20435;-44
2023/05/05 06:13:26;;;;;;;55.80;27.98;;;;;;;17.15;100.00;101532.22;5051496;28;20025;-48
2023/05/05 06:15:52;;;;;;;53.53;25.20;;;;;;;17.20;100.00;101539.75;5051853;28;20039;-45
2023/05/05 06:18:17;;;;;;;52.33;25.70;;;;;;;17.03;100.00;101550.19;5051677;28;20029;-47
2023/05/05 06:20:43;;;;;;;66.68;26.45;;;;;;;17.18;100.00;101548.13;5033867;28;20475;-44
2023/05/05 06:23:08;;;;;;;56.85;27.00;;;;;;;17.91;100.00;101547.25;5050267;28;20462;-45
2023/05/05 06:25:33;;;;;;;50.63;24.83;;;;;;;19.00;100.00;101540.88;5033254;28;20029;-45
2023/05/05 06:27:59;;;;;;;48.80;23.58;;;;;;;19.11;100.00;101533.03;5050771;28;20040;-43
2023/05/05 06:30:25;;;;;;;43.33;21.52;;;;;;;18.27;100.00;101529.50;5051130;28;20033;-47
2023/05/05 06:32:50;;;;;;;44.90;23.23;;;;;;;17.75;100.00;101535.72;5055879;28;20021;-45
2023/05/05 06:35:16;;;;;;;52.47;24.05;;;;;;;17.48;100.00;101537.66;5058988;28;20119;-44
2023/05/05 06:37:42;;;;;;;42.42;19.58;;;;;;;17.12;100.00;101538.09;5060089;28;20049;-48
2023/05/05 06:40:09;;;;;;;41.25;18.45;;;;;;;16.94;100.00;101543.28;5060699;28;20107;-48
2023/05/05 06:42:34;;;;;;;34.42;15.38;;;;;;;17.03;100.00;101545.59;5044716;28;20447;-47
2023/05/05 06:45:00;;;;;;;30.27;14.63;;;;;;;16.87;100.00;101545.97;5050161;28;20104;-46
2023/05/05 06:47:25;;;;;;;30.50;13.85;;;;;;;16.55;100.00;101542.94;5060481;28;20020;-46
2023/05/05 06:49:51;;;;;;;31.75;14.02;;;;;;;16.27;100.00;101558.50;5061240;28;20104;-44
2023/05/05 06:52:16;;;;;;;25.73;13.82;;;;;;;16.23;100.00;101555.38;5061035;28;20025;-45
2023/05/05 06:54:42;;;;;;;31.83;14.55;;;;;;;16.11;100.00;101559.69;5050243;28;20108;-45
2023/05/05 06:57:08;;;;;;;27.50;14.15;;;;;;;16.28;100.00;101555.59;5061841;28;20052;-48
2023/05/05 06:59:33;;;;;;;33.25;14.10;;;;;;;16.51;100.00;101558.00;5059496;28;20036;-47
2023/05/05 07:01:58;;;;;;;31.02;12.55;;;;;;;16.56;100.00;101565.53;5060771;28;20354;-46
2023/05/05 07:04:24;;;;;;;29.98;11.88;;;;;;;16.60;100.00;101545.91;5055327;28;20021;-47
2023/05/05 07:06:49;;;;;;;32.63;11.13;;;;;;;16.80;100.00;101551.44;5059818;28;20033;-46
2023/05/05 07:09:15;;;;;;;20.02;10.55;;;;;;;16.97;100.00;101542.88;5059791;28;20018;-48
2023/05/05 07:11:41;;;;;;;21.35;10.32;;;;;;;17.00;100.00;101539.72;5057866;28;20025;-48
2023/05/05 07:14:06;;;;;;;19.02;9.98;;;;;;;17.10;100.00;101540.16;5061857;28;20033;-43
2023/05/05 07:16:33;;;;;;;19.58;9.23;;;;;;;17.39;100.00;101538.06;5059765;28;20057;-46
2023/05/05 07:18:59;;;;;;;22.03;9.33;;;;;;;17.46;100.00;101537.03;5060945;28;20028;-44
2023/05/05 07:21:25;;;;;;;20.80;9.77;;;;;;;17.80;100.00;101542.44;5055026;28;20777;-45
2023/05/05 07:23:50;;;;;;;27.17;9.60;;;;;;;18.05;100.00;101543.44;5057271;28;20032;-46
2023/05/05 07:26:15;;;;;;;27.00;9.57;;;;;;;18.13;100.00;101545.91;5058641;28;20025;-46
2023/05/05 07:28:41;;;;;;;18.30;8.50;;;;;;;18.28;100.00;101540.22;5061819;28;20036;-46
2023/05/05 07:31:07;;;;;;;23.95;9.57;;;;;;;18.31;100.00;101538.94;5059767;28;20031;-47
2023/05/05 07:33:32;;;;;;;18.13;8.43;;;;;;;18.12;100.00;101544.25;5058671;28;20166;-51
2023/05/05 07:35:58;;;;;;;18.17;7.88;;;;;;;18.27;100.00;101535.78;5059866;28;20402;-45
2023/05/05 07:38:24;;;;;;;19.50;7.90;;;;;;;18.24;100.00;101535.41;5058254;28;20021;-45
2023/05/05 07:40:50;;;;;;;16.95;7.15;;;;;;;18.45;100.00;101547.88;5059193;28;20021;-47
2023/05/05 07:43:16;;;;;;;18.42;6.60;;;;;;;18.34;100.00;101557.56;5056718;28;20036;-46
2023/05/05 07:45:41;;;;;;;19.05;6.90;;;;;;;18.15;100.00;101556.59;5055783;28;20026;-45
2023/05/05 07:48:07;;;;;;;17.58;6.30;;;;;;;17.99;100.00;101555.19;5059223;28;20477;-44
2023/05/05 07:50:32;;;;;;;11.20;5.65;;;;;;;18.35;100.00;101559.25;5059117;28;20028;-51
2023/05/05 07:52:57;;;;;;;15.43;5.55;;;;;;;18.82;100.00;101559.88;5060408;28;20090;-45
2023/05/05 07:55:23;;;;;;;13.70;5.10;;;;;;;18.75;100.00;101549.03;5058815;28;20446;-47
2023/05/05 07:57:48;;;;;;;10.07;4.80;;;;;;;18.42;100.00;101551.88;5064434;28;20016;-45
2023/05/05 08:00:14;;;;;;;13.90;5.05;;;;;;;18.59;100.00;101557.69;5062415;28;20063;-48
2023/05/05 08:02:40;;;;;;;10.75;3.83;;;;;;;18.21;100.00;101551.13;5063160;28;20055;-45
2023/05/05 08:05:06;;;;;;;11.65;3.90;;;;;;;18.31;100.00;101561.56;5061402;28;20123;-48
2023/05/05 08:07:31;;;;;;;10.88;4.10;;;;;;;18.46;100.00;101563.16;5061540;28;20017;-45
2023/05/05 08:09:57;;;;;;;16.88;4.80;;;;;;;18.29;100.00;101562.84;5059004;28;20086;-47
2023/05/05 08:12:22;;;;;;;14.02;5.47;;;;;;;17.98;100.00;101575.28;5056766;28;20087;-47
2023/05/05 08:14:47;;;;;;;14.50;4.70;;;;;;;17.78;100.00;101575.31;5065446;28;20048;-45
2023/05/05 08:17:13;;;;;;;10.98;4.53;;;;;;;17.73;100.00;101578.66;5060102;28;20040;-49
2023/05/05 08:19:38;;;;;;;9.68;4.78;;;;;;;17.53;100.00;101577.84;5062636;28;20025;-45
2023/05/05 08:22:03;;;;;;;15.73;5.43;;;;;;;17.45;100.00;101575.31;5060521;28;20048;-45
2023/05/05 08:24:28;;;;;;;13.40;5.20;;;;;;;17.09;100.00;101593.72;5063218;28;20462;-49
2023/05/05 08:26:55;;;;;;;14.55;4.82;;;;;;;16.77;100.00;101595.34;5062001;28;20044;-47
2023/05/05 08:29:20;;;;;;;11.75;4.90;;;;;;;16.44;100.00;101612.31;5059931;28;20044;-45
2023/05/05 08:31:45;;;;;;;10.50;4.10;;;;;;;16.21;100.00;101614.47;5061882;28;20474;-46
2023/05/05 08:34:11;;;;;;;13.88;4.57;;;;;;;16.00;100.00;101605.38;5062642;28;20032;-46
2023/05/05 08:36:36;;;;;;;12.55;4.25;;;;;;;16.09;100.00;101614.22;5062412;28;20123;-45
2023/05/05 08:39:02;;;;;;;11.18;3.47;;;;;;;15.89;100.00;101608.66;5045774;28;20032;-46
2023/05/05 08:41:27;;;;;;;12.18;3.80;;;;;;;15.63;100.00;101606.53;5061320;28;20091;-45
2023/05/05 08:43:53;;;;;;;9.60;3.60;;;;;;;15.61;100.00;101610.47;5062735;28;20116;-45
2023/05/05 08:46:19;;;;;;;11.20;3.80;;;;;;;15.58;100.00;101612.56;5056784;28;20039;-47
2023/05/05 08:48:44;;;;;;;12.30;4.78;;;;;;;15.72;100.00;101618.16;5055670;28;20044;-48
2023/05/05 08:51:16;;;;;;;10.48;3.85;;;;;;;15.87;100.00;101621.56;5051194;28;20037;-49
2023/05/05 08:53:53;;;;;;;13.23;3.83;;;;;;;16.15;100.00;101631.59;5053333;28;20039;-47
2023/05/05 08:56:25;;;;;;;11.25;3.58;;;;;;;16.44;100.00;101625.06;5050052;28;20049;-48
2023/05/05 08:58:51;;;;;;;15.13;3.83;;;;;;;16.39;100.00;101609.34;5051963;28;20036;-47
2023/05/05 09:01:17;;;;;;;16.65;3.50;;;;;;;16.46;100.00;101610.22;5052779;28;20040;-49
2023/05/05 09:03:43;;;;;;;9.63;3.00;;;;;;;16.70;100.00;101604.47;5053437;28;20035;-46
2023/05/05 09:06:09;;;;;;;6.68;2.95;;;;;;;16.88;100.00;101602.06;5051550;28;20025;-49
2023/05/05 09:08:36;;;;;;;6.75;2.70;;;;;;;16.98;100.00;101607.06;5050830;28;20032;-46
2023/05/05 09:11:01;;;;;;;11.20;2.78;;;;;;;16.93;100.00;101601.41;5051433;28;20021;-45
2023/05/05 09:13:29;;;;;;;5.80;2.63;;;;;;;17.15;100.00;101602.94;5051483;28;20035;-48
2023/05/05 09:15:54;;;;;;;10.93;3.15;;;;;;;17.29;100.00;101615.50;5051533;28;20017;-46
2023/05/05 09:18:20;;;;;;;13.30;3.40;;;;;;;17.19;100.00;101604.19;5051182;28;20025;-46
2023/05/05 09:20:45;;;;;;;9.48;3.45;;;;;;;17.17;100.00;101609.03;5050633;28;20107;-48
2023/05/05 09:23:18;;;;;;;8.98;3.28;;;;;;;17.15;100.00;101608.38;5053115;28;20106;-48
2023/05/05 09:25:45;;;;;;;15.10;3.60;;;;;;;17.17;100.00;101611.75;5052346;28;20017;-48
2023/05/05 09:28:16;;;;;;;10.40;3.33;;;;;;;17.21;100.00;101614.88;5050895;28;20056;-46
2023/05/05 09:30:43;;;;;;;15.63;3.78;;;;;;;17.16;100.00;101606.50;5052123;28;20028;-48
2023/05/05 09:33:09;;;;;;;11.48;4.40;;;;;;;17.06;100.00;101615.03;5051240;28;20387;-46
2023/05/05 09:35:54;;;;;;;16.40;4.40;;;;;;;17.16;100.00;101620.91;5052447;28;20079;-46
2023/05/05 09:38:22;;;;;;;9.23;3.60;;;;;;;17.11;100.00;101621.56;5050859;28;20032;-46
2023/05/05 09:40:52;;;;;;;20.25;4.60;;;;;;;17.23;100.00;101626.38;5051868;28;20029;-45
2023/05/05 09:43:20;;;;;;;12.95;3.53;;;;;;;17.04;100.00;101628.03;5052035;28;20420;-45
2023/05/05 09:45:47;;;;;;;9.75;3.28;;;;;;;16.93;100.00;101621.31;5051842;28;20382;-44
2023/05/05 09:48:26;;;;;;;8.45;3.00;;;;;;;16.88;100.00;101618.38;5052380;28;20017;-48
2023/05/05 09:50:53;;;;;;;7.28;2.75;;;;;;;16.99;100.00;101619.66;5051707;28;20029;-45
2023/05/05 09:53:18;;;;;;;9.63;3.05;;;;;;;17.09;100.00;101614.66;5051863;28;20032;-45
2023/05/05 09:55:58;;;;;;;18.35;3.67;;;;;;;17.01;100.00;101607.53;5051431;28;20110;-46
2023/05/05 09:58:25;;;;;;;13.80;3.90;;;;;;;17.08;100.00;101610.25;5033809;28;20045;-49
2023/05/05 10:00:51;;;;;;;13.32;3.45;;;;;;;17.14;100.00;101614.88;5051732;28;20031;-47
2023/05/05 10:03:17;;;;;;;18.05;3.42;;;;;;;17.02;100.00;101603.75;5067479;28;20044;-45
2023/05/05 10:05:51;;;;;;;13.18;3.20;;;;;;;17.09;100.00;101614.66;5050099;28;20063;-46
2023/05/05 10:08:18;;;;;;;14.38;3.17;;;;;;;17.12;100.00;101597.91;5050080;28;20509;-49
2023/05/05 10:10:50;;;;;;;10.97;2.63;;;;;;;17.20;100.00;101603.16;5051318;28;20021;-45
2023/05/05 10:13:19;;;;;;;8.65;2.40;;;;;;;17.27;100.00;101595.84;5050098;28;20333;-45
2023/05/05 10:15:45;;;;;;;6.15;2.83;;;;;;;17.25;100.00;101597.94;5066628;28;20043;-50
2023/05/05 10:18:13;;;;;;;14.85;2.67;;;;;;;17.16;100.00;101590.16;5050207;28;20048;-47
2023/05/05 10:20:41;;;;;;;13.90;2.83;;;;;;;17.26;100.00;101598.75;5050751;28;20053;-46
2023/05/05 10:23:07;;;;;;;10.73;2.90;;;;;;;17.00;100.00;101594.13;5051130;28;20471;-46
2023/05/05 10:25:42;;;;;;;11.88;2.55;;;;;;;17.14;100.00;101594.97;5051255;28;20052;-49
2023/05/05 10:28:08;;;;;;;19.02;3.20;;;;;;;17.33;100.00;101591.47;5033433;28;20111;-46
2023/05/05 10:30:38;;;;;;;10.95;2.70;;;;;;;17.50;100.00;101589.97;5050428;28;20082;-46
2023/05/05 10:33:16;;;;;;;7.85;2.78;;;;;;;17.64;100.00;101590.84;5049697;28;20032;-44
2023/05/05 10:35:43;;;;;;;14.65;3.58;;;;;;;17.63;100.00;101591.03;5051055;28;20029;-47
2023/05/05 10:38:10;;;;;;;11.90;3.05;;;;;;;17.13;100.00;101590.59;5049696;28;20072;-45
2023/05/05 10:40:35;;;;;;;17.55;3.25;;;;;;;17.18;100.00;101588.91;5049637;28;20029;-44
2023/05/05 10:43:01;;;;;;;9.65;3.17;;;;;;;17.22;100.00;101586.59;5050907;28;20144;-44
2023/05/05 10:45:26;;;;;;;15.18;3.58;;;;;;;17.02;100.00;101592.88;5051013;28;20060;-44
2023/05/05 10:47:52;;;;;;;9.18;3.70;;;;;;;17.08;100.00;101592.03;5050644;28;20033;-47
2023/05/05 10:50:38;;;;;;;12.15;3.60;;;;;;;17.07;100.00;101594.97;5051104;28;20032;-48
2023/05/05 10:53:15;;;;;;;17.10;3.63;;;;;;;16.91;100.00;101587.22;5032896;28;20044;-44
2023/05/05 10:55:56;;;;;;;14.60;3.28;;;;;;;16.75;100.00;101583.78;5049800;28;20044;-46
2023/05/05 10:58:35;;;;;;;13.00;3.95;;;;;;;16.66;100.00;101574.13;5049799;28;20082;-46
2023/05/05 11:01:02;;;;;;;14.43;4.60;;;;;;;16.76;100.00;101582.75;5050074;28;20205;-44
2023/05/05 11:03:28;;;;;;;13.68;4.40;;;;;;;16.91;100.00;101584.50;5050679;28;20108;-46
2023/05/05 11:06:02;;;;;;;13.43;4.82;;;;;;;17.02;100.00;101587.44;5050724;28;20025;-47
2023/05/05 11:08:49;;;;;;;15.00;4.28;;;;;;;17.08;100.00;101574.88;5049352;28;20495;-47